sensor_id;sensor_type;location;lat;lon;timestamp;P1;durP1;ratioP1;P2;durP2;ratioP2
12271;SDS011;6198;51.446;6.698;2023-09-19T00:00:30;14.27;;;3.47;;
12271;SDS011;6198;51.446;6.698;2023-09-19T00:02:57;12.60;;;3.13;;
12271;SDS011;6198;51.446;6.698;2023-09-19T00:05:26;13.67;;;3.80;;
12271;SDS011;6198;51.446;6.698;2023-09-19T00:07:53;10.60;;;2.97;;
12271;SDS011;6198;51.446;6.698;2023-09-19T00:10:22;11.97;;;3.23;;
12271;SDS011;6198;51.446;6.698;2023-09-19T00:12:50;12.53;;;3.37;;
12271;SDS011;6198;51.446;6.698;2023-09-19T00:15:17;9.93;;;3.23;;
12271;SDS011;6198;51.446;6.698;2023-09-19T00:17:44;12.17;;;3.77;;
12271;SDS011;6198;51.446;6.698;2023-09-19T00:20:10;10.90;;;2.90;;
12271;SDS011;6198;51.446;6.698;2023-09-19T00:22:41;10.93;;;3.10;;
12271;SDS011;6198;51.446;6.698;2023-09-19T00:25:10;13.40;;;3.60;;
12271;SDS011;6198;51.446;6.698;2023-09-19T00:27:40;11.07;;;3.23;;
12271;SDS011;6198;51.446;6.698;2023-09-19T00:30:10;9.80;;;3.33;;
12271;SDS011;6198;51.446;6.698;2023-09-19T00:32:41;16.30;;;3.20;;
12271;SDS011;6198;51.446;6.698;2023-09-19T00:35:07;9.63;;;3.07;;
12271;SDS011;6198;51.446;6.698;2023-09-19T00:37:36;9.27;;;2.93;;
12271;SDS011;6198;51.446;6.698;2023-09-19T00:40:06;14.93;;;3.20;;
12271;SDS011;6198;51.446;6.698;2023-09-19T00:42:34;6.93;;;2.93;;
12271;SDS011;6198;51.446;6.698;2023-09-19T00:45:02;12.70;;;3.97;;
12271;SDS011;6198;51.446;6.698;2023-09-19T00:47:28;15.90;;;3.80;;
12271;SDS011;6198;51.446;6.698;2023-09-19T00:49:55;11.00;;;2.87;;
12271;SDS011;6198;51.446;6.698;2023-09-19T00:52:21;9.33;;;2.90;;
12271;SDS011;6198;51.446;6.698;2023-09-19T00:54:48;11.13;;;2.93;;
12271;SDS011;6198;51.446;6.698;2023-09-19T00:57:15;13.37;;;3.40;;
12271;SDS011;6198;51.446;6.698;2023-09-19T00:59:42;14.77;;;3.60;;
12271;SDS011;6198;51.446;6.698;2023-09-19T01:02:08;11.87;;;3.03;;
12271;SDS011;6198;51.446;6.698;2023-09-19T01:04:35;9.60;;;2.77;;
12271;SDS011;6198;51.446;6.698;2023-09-19T01:07:02;9.00;;;3.23;;
12271;SDS011;6198;51.446;6.698;2023-09-19T01:09:28;18.13;;;3.97;;
12271;SDS011;6198;51.446;6.698;2023-09-19T01:11:56;9.63;;;3.47;;
12271;SDS011;6198;51.446;6.698;2023-09-19T01:30:17;13.00;;;3.90;;
12271;SDS011;6198;51.446;6.698;2023-09-19T01:32:47;12.73;;;4.20;;
12271;SDS011;6198;51.446;6.698;2023-09-19T01:35:14;10.77;;;3.47;;
12271;SDS011;6198;51.446;6.698;2023-09-19T01:37:40;11.80;;;4.03;;
12271;SDS011;6198;51.446;6.698;2023-09-19T01:40:08;17.97;;;4.20;;
12271;SDS011;6198;51.446;6.698;2023-09-19T01:47:53;11.93;;;3.60;;
12271;SDS011;6198;51.446;6.698;2023-09-19T01:53:02;13.53;;;3.70;;
12271;SDS011;6198;51.446;6.698;2023-09-19T01:55:29;15.53;;;3.37;;
12271;SDS011;6198;51.446;6.698;2023-09-19T01:58:01;9.30;;;3.40;;
12271;SDS011;6198;51.446;6.698;2023-09-19T02:00:29;11.70;;;3.67;;
12271;SDS011;6198;51.446;6.698;2023-09-19T02:02:56;13.20;;;3.40;;
12271;SDS011;6198;51.446;6.698;2023-09-19T02:05:23;11.33;;;3.67;;
12271;SDS011;6198;51.446;6.698;2023-09-19T02:07:50;11.43;;;3.93;;
12271;SDS011;6198;51.446;6.698;2023-09-19T02:10:16;11.07;;;3.07;;
12271;SDS011;6198;51.446;6.698;2023-09-19T02:12:42;9.93;;;2.80;;
12271;SDS011;6198;51.446;6.698;2023-09-19T02:15:08;13.37;;;3.70;;
12271;SDS011;6198;51.446;6.698;2023-09-19T02:17:34;8.47;;;2.70;;
12271;SDS011;6198;51.446;6.698;2023-09-19T02:20:00;15.67;;;3.90;;
12271;SDS011;6198;51.446;6.698;2023-09-19T02:22:28;12.03;;;3.37;;
12271;SDS011;6198;51.446;6.698;2023-09-19T02:24:54;14.33;;;3.53;;
12271;SDS011;6198;51.446;6.698;2023-09-19T02:27:23;13.57;;;3.63;;
12271;SDS011;6198;51.446;6.698;2023-09-19T02:29:49;14.57;;;3.50;;
12271;SDS011;6198;51.446;6.698;2023-09-19T02:32:16;11.83;;;3.57;;
12271;SDS011;6198;51.446;6.698;2023-09-19T02:34:43;16.40;;;3.97;;
12271;SDS011;6198;51.446;6.698;2023-09-19T02:37:09;12.47;;;3.60;;
12271;SDS011;6198;51.446;6.698;2023-09-19T02:39:35;10.67;;;3.30;;
12271;SDS011;6198;51.446;6.698;2023-09-19T02:42:02;12.13;;;3.30;;
12271;SDS011;6198;51.446;6.698;2023-09-19T02:44:29;9.03;;;3.73;;
12271;SDS011;6198;51.446;6.698;2023-09-19T02:46:55;10.40;;;3.27;;
12271;SDS011;6198;51.446;6.698;2023-09-19T02:49:22;6.67;;;2.60;;
12271;SDS011;6198;51.446;6.698;2023-09-19T02:51:48;15.07;;;2.73;;
12271;SDS011;6198;51.446;6.698;2023-09-19T02:54:14;15.43;;;4.17;;
12271;SDS011;6198;51.446;6.698;2023-09-19T02:56:44;13.97;;;3.73;;
12271;SDS011;6198;51.446;6.698;2023-09-19T02:59:10;10.77;;;3.40;;
12271;SDS011;6198;51.446;6.698;2023-09-19T03:01:36;20.07;;;4.23;;
12271;SDS011;6198;51.446;6.698;2023-09-19T03:04:04;13.33;;;3.33;;
12271;SDS011;6198;51.446;6.698;2023-09-19T03:06:36;15.53;;;3.43;;
12271;SDS011;6198;51.446;6.698;2023-09-19T03:09:03;9.37;;;3.27;;
12271;SDS011;6198;51.446;6.698;2023-09-19T03:11:37;12.77;;;3.70;;
12271;SDS011;6198;51.446;6.698;2023-09-19T03:14:05;10.23;;;3.50;;
12271;SDS011;6198;51.446;6.698;2023-09-19T03:16:31;9.10;;;3.10;;
12271;SDS011;6198;51.446;6.698;2023-09-19T03:18:58;8.67;;;3.53;;
12271;SDS011;6198;51.446;6.698;2023-09-19T03:21:24;12.47;;;3.87;;
12271;SDS011;6198;51.446;6.698;2023-09-19T03:23:50;14.93;;;4.07;;
12271;SDS011;6198;51.446;6.698;2023-09-19T03:26:16;10.37;;;3.03;;
12271;SDS011;6198;51.446;6.698;2023-09-19T03:28:42;15.67;;;3.93;;
12271;SDS011;6198;51.446;6.698;2023-09-19T03:31:08;11.93;;;3.47;;
12271;SDS011;6198;51.446;6.698;2023-09-19T03:33:35;7.60;;;3.23;;
12271;SDS011;6198;51.446;6.698;2023-09-19T03:36:02;11.83;;;3.30;;
12271;SDS011;6198;51.446;6.698;2023-09-19T03:38:29;10.17;;;3.00;;
12271;SDS011;6198;51.446;6.698;2023-09-19T03:40:56;12.03;;;3.60;;
12271;SDS011;6198;51.446;6.698;2023-09-19T03:43:22;12.60;;;3.90;;
12271;SDS011;6198;51.446;6.698;2023-09-19T03:45:48;18.53;;;3.37;;
12271;SDS011;6198;51.446;6.698;2023-09-19T03:48:15;13.67;;;3.20;;
12271;SDS011;6198;51.446;6.698;2023-09-19T03:50:42;8.87;;;3.53;;
12271;SDS011;6198;51.446;6.698;2023-09-19T03:53:09;9.70;;;3.47;;
12271;SDS011;6198;51.446;6.698;2023-09-19T03:55:35;13.77;;;4.50;;
12271;SDS011;6198;51.446;6.698;2023-09-19T03:58:04;13.43;;;3.53;;
12271;SDS011;6198;51.446;6.698;2023-09-19T04:00:30;10.13;;;3.40;;
12271;SDS011;6198;51.446;6.698;2023-09-19T04:02:56;10.77;;;3.27;;
12271;SDS011;6198;51.446;6.698;2023-09-19T04:05:22;14.90;;;4.07;;
12271;SDS011;6198;51.446;6.698;2023-09-19T04:07:48;9.73;;;3.30;;
12271;SDS011;6198;51.446;6.698;2023-09-19T04:10:18;17.47;;;3.80;;
12271;SDS011;6198;51.446;6.698;2023-09-19T04:12:54;13.80;;;5.73;;
12271;SDS011;6198;51.446;6.698;2023-09-19T04:15:20;12.97;;;5.20;;
12271;SDS011;6198;51.446;6.698;2023-09-19T04:17:48;17.33;;;7.23;;
12271;SDS011;6198;51.446;6.698;2023-09-19T04:20:14;10.37;;;4.40;;
12271;SDS011;6198;51.446;6.698;2023-09-19T04:22:40;14.67;;;3.37;;
12271;SDS011;6198;51.446;6.698;2023-09-19T04:25:06;16.30;;;3.70;;
12271;SDS011;6198;51.446;6.698;2023-09-19T04:27:33;11.43;;;3.93;;
12271;SDS011;6198;51.446;6.698;2023-09-19T04:29:59;17.23;;;7.77;;
12271;SDS011;6198;51.446;6.698;2023-09-19T04:32:28;15.77;;;4.40;;
12271;SDS011;6198;51.446;6.698;2023-09-19T04:34:57;17.33;;;5.70;;
12271;SDS011;6198;51.446;6.698;2023-09-19T04:37:25;8.60;;;3.57;;
12271;SDS011;6198;51.446;6.698;2023-09-19T04:39:51;12.47;;;4.87;;
12271;SDS011;6198;51.446;6.698;2023-09-19T04:42:17;14.30;;;4.57;;
12271;SDS011;6198;51.446;6.698;2023-09-19T04:44:44;10.80;;;4.23;;
12271;SDS011;6198;51.446;6.698;2023-09-19T04:47:10;12.07;;;4.10;;
12271;SDS011;6198;51.446;6.698;2023-09-19T04:49:37;11.13;;;3.20;;
12271;SDS011;6198;51.446;6.698;2023-09-19T04:52:04;11.60;;;3.50;;
12271;SDS011;6198;51.446;6.698;2023-09-19T04:54:31;10.83;;;3.73;;
12271;SDS011;6198;51.446;6.698;2023-09-19T04:56:58;14.83;;;4.07;;
12271;SDS011;6198;51.446;6.698;2023-09-19T04:59:25;12.50;;;3.73;;
12271;SDS011;6198;51.446;6.698;2023-09-19T05:01:51;12.77;;;3.40;;
12271;SDS011;6198;51.446;6.698;2023-09-19T05:04:17;10.23;;;3.13;;
12271;SDS011;6198;51.446;6.698;2023-09-19T05:06:43;13.07;;;3.77;;
12271;SDS011;6198;51.446;6.698;2023-09-19T05:09:09;18.57;;;4.10;;
12271;SDS011;6198;51.446;6.698;2023-09-19T05:11:35;12.80;;;3.60;;
12271;SDS011;6198;51.446;6.698;2023-09-19T05:14:03;11.67;;;3.30;;
12271;SDS011;6198;51.446;6.698;2023-09-19T05:16:29;11.17;;;3.93;;
12271;SDS011;6198;51.446;6.698;2023-09-19T05:18:58;9.00;;;3.07;;
12271;SDS011;6198;51.446;6.698;2023-09-19T05:21:25;17.47;;;3.97;;
12271;SDS011;6198;51.446;6.698;2023-09-19T05:23:54;9.00;;;3.20;;
12271;SDS011;6198;51.446;6.698;2023-09-19T05:26:19;16.03;;;3.93;;
12271;SDS011;6198;51.446;6.698;2023-09-19T05:36:06;10.10;;;3.10;;
12271;SDS011;6198;51.446;6.698;2023-09-19T05:38:34;15.83;;;4.07;;
12271;SDS011;6198;51.446;6.698;2023-09-19T05:41:00;16.33;;;4.20;;
12271;SDS011;6198;51.446;6.698;2023-09-19T05:43:27;17.23;;;4.50;;
12271;SDS011;6198;51.446;6.698;2023-09-19T05:45:53;13.53;;;3.70;;
12271;SDS011;6198;51.446;6.698;2023-09-19T05:48:21;11.40;;;3.60;;
12271;SDS011;6198;51.446;6.698;2023-09-19T07:14:03;14.43;;;4.33;;
12271;SDS011;6198;51.446;6.698;2023-09-19T07:16:30;13.67;;;4.17;;
12271;SDS011;6198;51.446;6.698;2023-09-19T07:18:56;14.87;;;3.53;;
12271;SDS011;6198;51.446;6.698;2023-09-19T07:21:23;12.53;;;3.87;;
12271;SDS011;6198;51.446;6.698;2023-09-19T07:23:49;12.03;;;3.27;;
12271;SDS011;6198;51.446;6.698;2023-09-19T07:26:15;12.97;;;3.40;;
12271;SDS011;6198;51.446;6.698;2023-09-19T07:28:42;16.10;;;3.87;;
12271;SDS011;6198;51.446;6.698;2023-09-19T07:31:08;14.07;;;3.57;;
12271;SDS011;6198;51.446;6.698;2023-09-19T07:33:35;17.10;;;3.47;;
12271;SDS011;6198;51.446;6.698;2023-09-19T07:36:01;9.33;;;3.60;;
12271;SDS011;6198;51.446;6.698;2023-09-19T07:38:27;11.00;;;3.33;;
12271;SDS011;6198;51.446;6.698;2023-09-19T07:40:59;16.17;;;11.33;;
12271;SDS011;6198;51.446;6.698;2023-09-19T07:43:34;15.97;;;3.80;;
12271;SDS011;6198;51.446;6.698;2023-09-19T07:46:06;15.70;;;4.23;;
12271;SDS011;6198;51.446;6.698;2023-09-19T07:48:35;12.53;;;3.87;;
12271;SDS011;6198;51.446;6.698;2023-09-19T07:51:03;14.80;;;3.77;;
12271;SDS011;6198;51.446;6.698;2023-09-19T07:53:29;14.73;;;3.57;;
12271;SDS011;6198;51.446;6.698;2023-09-19T07:56:05;16.10;;;4.30;;
12271;SDS011;6198;51.446;6.698;2023-09-19T07:58:31;12.27;;;3.47;;
12271;SDS011;6198;51.446;6.698;2023-09-19T08:01:05;12.97;;;3.47;;
12271;SDS011;6198;51.446;6.698;2023-09-19T08:03:31;9.73;;;2.90;;
12271;SDS011;6198;51.446;6.698;2023-09-19T08:05:57;12.43;;;3.80;;
12271;SDS011;6198;51.446;6.698;2023-09-19T08:08:24;16.37;;;3.93;;
12271;SDS011;6198;51.446;6.698;2023-09-19T08:10:54;12.00;;;3.90;;
12271;SDS011;6198;51.446;6.698;2023-09-19T08:13:23;16.47;;;4.23;;
12271;SDS011;6198;51.446;6.698;2023-09-19T08:15:50;12.43;;;3.47;;
12271;SDS011;6198;51.446;6.698;2023-09-19T08:18:16;10.73;;;3.20;;
12271;SDS011;6198;51.446;6.698;2023-09-19T08:20:42;10.93;;;3.20;;
12271;SDS011;6198;51.446;6.698;2023-09-19T08:23:11;11.27;;;3.00;;
12271;SDS011;6198;51.446;6.698;2023-09-19T08:25:37;16.40;;;4.00;;
12271;SDS011;6198;51.446;6.698;2023-09-19T08:28:04;12.40;;;3.10;;
12271;SDS011;6198;51.446;6.698;2023-09-19T08:30:33;10.97;;;3.50;;
12271;SDS011;6198;51.446;6.698;2023-09-19T08:33:00;9.73;;;3.27;;
12271;SDS011;6198;51.446;6.698;2023-09-19T08:35:26;10.37;;;2.50;;
12271;SDS011;6198;51.446;6.698;2023-09-19T08:37:52;12.20;;;3.10;;
12271;SDS011;6198;51.446;6.698;2023-09-19T08:40:20;15.17;;;3.43;;
12271;SDS011;6198;51.446;6.698;2023-09-19T08:42:47;12.47;;;3.33;;
12271;SDS011;6198;51.446;6.698;2023-09-19T08:45:13;13.80;;;4.33;;
12271;SDS011;6198;51.446;6.698;2023-09-19T08:47:41;13.67;;;3.47;;
12271;SDS011;6198;51.446;6.698;2023-09-19T08:50:28;16.20;;;3.70;;
12271;SDS011;6198;51.446;6.698;2023-09-19T08:52:55;12.93;;;3.47;;
12271;SDS011;6198;51.446;6.698;2023-09-19T08:55:23;14.17;;;3.60;;
12271;SDS011;6198;51.446;6.698;2023-09-19T08:57:51;12.13;;;3.30;;
12271;SDS011;6198;51.446;6.698;2023-09-19T09:00:18;16.23;;;3.77;;
12271;SDS011;6198;51.446;6.698;2023-09-19T09:02:46;10.03;;;3.30;;
12271;SDS011;6198;51.446;6.698;2023-09-19T09:05:12;16.33;;;4.20;;
12271;SDS011;6198;51.446;6.698;2023-09-19T09:07:40;13.50;;;3.70;;
12271;SDS011;6198;51.446;6.698;2023-09-19T09:10:07;13.43;;;3.67;;
12271;SDS011;6198;51.446;6.698;2023-09-19T09:12:33;14.67;;;3.43;;
12271;SDS011;6198;51.446;6.698;2023-09-19T09:15:01;12.63;;;3.30;;
12271;SDS011;6198;51.446;6.698;2023-09-19T09:17:28;12.40;;;4.07;;
12271;SDS011;6198;51.446;6.698;2023-09-19T09:19:55;9.73;;;2.80;;
12271;SDS011;6198;51.446;6.698;2023-09-19T09:22:20;12.03;;;3.27;;
12271;SDS011;6198;51.446;6.698;2023-09-19T09:24:53;14.23;;;4.40;;
12271;SDS011;6198;51.446;6.698;2023-09-19T09:27:20;10.87;;;3.43;;
12271;SDS011;6198;51.446;6.698;2023-09-19T09:29:49;12.23;;;3.03;;
12271;SDS011;6198;51.446;6.698;2023-09-19T09:34:48;11.53;;;3.50;;
12271;SDS011;6198;51.446;6.698;2023-09-19T09:37:14;11.90;;;3.57;;
12271;SDS011;6198;51.446;6.698;2023-09-19T09:39:48;12.23;;;3.37;;
12271;SDS011;6198;51.446;6.698;2023-09-19T09:42:28;10.97;;;3.20;;
12271;SDS011;6198;51.446;6.698;2023-09-19T09:45:15;11.80;;;2.77;;
12271;SDS011;6198;51.446;6.698;2023-09-19T09:47:42;11.77;;;3.77;;
12271;SDS011;6198;51.446;6.698;2023-09-19T09:50:23;8.73;;;3.07;;
12271;SDS011;6198;51.446;6.698;2023-09-19T09:52:54;10.40;;;3.40;;
12271;SDS011;6198;51.446;6.698;2023-09-19T09:55:25;12.73;;;3.57;;
12271;SDS011;6198;51.446;6.698;2023-09-19T09:58:15;14.50;;;4.20;;
12271;SDS011;6198;51.446;6.698;2023-09-19T10:00:52;7.97;;;2.70;;
12271;SDS011;6198;51.446;6.698;2023-09-19T10:03:30;11.60;;;3.20;;
12271;SDS011;6198;51.446;6.698;2023-09-19T10:05:56;15.10;;;3.70;;
12271;SDS011;6198;51.446;6.698;2023-09-19T10:08:23;9.57;;;3.33;;
12271;SDS011;6198;51.446;6.698;2023-09-19T10:10:51;12.27;;;3.70;;
12271;SDS011;6198;51.446;6.698;2023-09-19T10:13:17;13.67;;;3.57;;
12271;SDS011;6198;51.446;6.698;2023-09-19T10:15:50;9.87;;;3.00;;
12271;SDS011;6198;51.446;6.698;2023-09-19T10:18:19;8.27;;;2.73;;
12271;SDS011;6198;51.446;6.698;2023-09-19T10:20:46;12.40;;;3.57;;
12271;SDS011;6198;51.446;6.698;2023-09-19T10:23:14;13.37;;;3.20;;
12271;SDS011;6198;51.446;6.698;2023-09-19T10:25:47;11.37;;;3.67;;
12271;SDS011;6198;51.446;6.698;2023-09-19T10:28:14;9.20;;;3.37;;
12271;SDS011;6198;51.446;6.698;2023-09-19T10:30:41;10.90;;;3.60;;
12271;SDS011;6198;51.446;6.698;2023-09-19T10:33:10;7.20;;;2.43;;
12271;SDS011;6198;51.446;6.698;2023-09-19T10:35:38;13.27;;;3.13;;
12271;SDS011;6198;51.446;6.698;2023-09-19T10:38:06;11.70;;;3.20;;
12271;SDS011;6198;51.446;6.698;2023-09-19T10:40:33;10.77;;;3.47;;
12271;SDS011;6198;51.446;6.698;2023-09-19T10:43:04;14.00;;;3.40;;
12271;SDS011;6198;51.446;6.698;2023-09-19T10:45:30;10.73;;;3.50;;
12271;SDS011;6198;51.446;6.698;2023-09-19T10:47:57;9.77;;;2.57;;
12271;SDS011;6198;51.446;6.698;2023-09-19T10:50:23;14.30;;;3.77;;
12271;SDS011;6198;51.446;6.698;2023-09-19T10:52:50;7.77;;;3.37;;
12271;SDS011;6198;51.446;6.698;2023-09-19T10:55:23;8.27;;;2.80;;
12271;SDS011;6198;51.446;6.698;2023-09-19T10:57:50;8.87;;;3.10;;
12271;SDS011;6198;51.446;6.698;2023-09-19T11:00:16;9.27;;;3.30;;
12271;SDS011;6198;51.446;6.698;2023-09-19T11:05:34;6.30;;;3.10;;
12271;SDS011;6198;51.446;6.698;2023-09-19T11:08:08;10.90;;;3.43;;
12271;SDS011;6198;51.446;6.698;2023-09-19T11:10:46;11.83;;;3.10;;
12271;SDS011;6198;51.446;6.698;2023-09-19T11:13:28;7.17;;;2.83;;
12271;SDS011;6198;51.446;6.698;2023-09-19T11:26:57;9.47;;;3.03;;
12271;SDS011;6198;51.446;6.698;2023-09-19T11:29:34;9.03;;;3.10;;
12271;SDS011;6198;51.446;6.698;2023-09-19T11:32:01;6.67;;;2.53;;
12271;SDS011;6198;51.446;6.698;2023-09-19T11:37:03;9.60;;;2.80;;
12271;SDS011;6198;51.446;6.698;2023-09-19T11:39:30;9.50;;;3.10;;
12271;SDS011;6198;51.446;6.698;2023-09-19T11:41:56;7.10;;;2.87;;
12271;SDS011;6198;51.446;6.698;2023-09-19T11:49:18;8.90;;;3.33;;
12271;SDS011;6198;51.446;6.698;2023-09-19T11:51:48;11.90;;;2.90;;
12271;SDS011;6198;51.446;6.698;2023-09-19T11:54:17;7.70;;;2.93;;
12271;SDS011;6198;51.446;6.698;2023-09-19T11:56:44;8.60;;;2.93;;
12271;SDS011;6198;51.446;6.698;2023-09-19T11:59:11;5.63;;;2.80;;
12271;SDS011;6198;51.446;6.698;2023-09-19T12:01:41;10.33;;;2.77;;
12271;SDS011;6198;51.446;6.698;2023-09-19T12:04:10;5.20;;;2.50;;
12271;SDS011;6198;51.446;6.698;2023-09-19T12:06:37;8.70;;;3.17;;
12271;SDS011;6198;51.446;6.698;2023-09-19T12:09:12;8.67;;;3.00;;
12271;SDS011;6198;51.446;6.698;2023-09-19T12:11:42;7.57;;;3.00;;
12271;SDS011;6198;51.446;6.698;2023-09-19T12:14:11;6.37;;;2.77;;
12271;SDS011;6198;51.446;6.698;2023-09-19T12:16:38;6.87;;;2.90;;
12271;SDS011;6198;51.446;6.698;2023-09-19T12:19:17;8.23;;;2.93;;
12271;SDS011;6198;51.446;6.698;2023-09-19T12:21:56;11.27;;;2.70;;
12271;SDS011;6198;51.446;6.698;2023-09-19T12:24:25;6.47;;;2.80;;
12271;SDS011;6198;51.446;6.698;2023-09-19T12:26:51;9.23;;;2.57;;
12271;SDS011;6198;51.446;6.698;2023-09-19T12:29:18;9.77;;;3.47;;
12271;SDS011;6198;51.446;6.698;2023-09-19T12:31:55;10.13;;;3.07;;
12271;SDS011;6198;51.446;6.698;2023-09-19T12:34:28;6.83;;;2.10;;
12271;SDS011;6198;51.446;6.698;2023-09-19T12:37:10;7.77;;;2.60;;
12271;SDS011;6198;51.446;6.698;2023-09-19T12:39:48;6.83;;;2.93;;
12271;SDS011;6198;51.446;6.698;2023-09-19T12:42:14;6.20;;;2.87;;
12271;SDS011;6198;51.446;6.698;2023-09-19T12:44:41;8.17;;;3.20;;
12271;SDS011;6198;51.446;6.698;2023-09-19T12:47:12;9.63;;;4.53;;
12271;SDS011;6198;51.446;6.698;2023-09-19T12:52:26;6.17;;;2.60;;
12271;SDS011;6198;51.446;6.698;2023-09-19T12:54:52;9.30;;;2.87;;
12271;SDS011;6198;51.446;6.698;2023-09-19T12:57:24;8.57;;;3.50;;
12271;SDS011;6198;51.446;6.698;2023-09-19T12:59:52;7.97;;;2.73;;
12271;SDS011;6198;51.446;6.698;2023-09-19T13:02:17;7.90;;;2.93;;
12271;SDS011;6198;51.446;6.698;2023-09-19T13:04:54;7.60;;;3.60;;
12271;SDS011;6198;51.446;6.698;2023-09-19T13:07:41;6.73;;;3.40;;
12271;SDS011;6198;51.446;6.698;2023-09-19T13:10:14;7.87;;;2.60;;
12271;SDS011;6198;51.446;6.698;2023-09-19T13:12:41;7.80;;;2.57;;
12271;SDS011;6198;51.446;6.698;2023-09-19T13:15:12;4.53;;;2.10;;
12271;SDS011;6198;51.446;6.698;2023-09-19T13:17:44;5.10;;;2.23;;
12271;SDS011;6198;51.446;6.698;2023-09-19T13:20:23;6.37;;;2.67;;
12271;SDS011;6198;51.446;6.698;2023-09-19T13:22:57;9.87;;;2.70;;
12271;SDS011;6198;51.446;6.698;2023-09-19T13:25:25;5.13;;;2.10;;
12271;SDS011;6198;51.446;6.698;2023-09-19T13:27:53;7.47;;;2.40;;
12271;SDS011;6198;51.446;6.698;2023-09-19T13:30:21;5.80;;;2.00;;
12271;SDS011;6198;51.446;6.698;2023-09-19T13:32:47;5.13;;;1.97;;
12271;SDS011;6198;51.446;6.698;2023-09-19T13:35:13;7.97;;;2.57;;
12271;SDS011;6198;51.446;6.698;2023-09-19T13:37:40;3.90;;;1.90;;
12271;SDS011;6198;51.446;6.698;2023-09-19T13:42:34;7.90;;;2.30;;
12271;SDS011;6198;51.446;6.698;2023-09-19T13:45:02;6.67;;;2.20;;
12271;SDS011;6198;51.446;6.698;2023-09-19T13:47:29;4.07;;;1.60;;
12271;SDS011;6198;51.446;6.698;2023-09-19T13:49:55;6.20;;;1.90;;
12271;SDS011;6198;51.446;6.698;2023-09-19T13:52:22;6.03;;;2.20;;
12271;SDS011;6198;51.446;6.698;2023-09-19T13:54:48;7.00;;;2.57;;
12271;SDS011;6198;51.446;6.698;2023-09-19T13:57:14;5.70;;;2.50;;
12271;SDS011;6198;51.446;6.698;2023-09-19T13:59:41;6.13;;;2.03;;
12271;SDS011;6198;51.446;6.698;2023-09-19T14:02:07;8.27;;;2.20;;
12271;SDS011;6198;51.446;6.698;2023-09-19T14:04:33;2.73;;;1.60;;
12271;SDS011;6198;51.446;6.698;2023-09-19T14:07:00;6.47;;;2.03;;
12271;SDS011;6198;51.446;6.698;2023-09-19T14:09:26;4.53;;;1.57;;
12271;SDS011;6198;51.446;6.698;2023-09-19T14:11:52;8.37;;;2.00;;
12271;SDS011;6198;51.446;6.698;2023-09-19T14:14:18;5.37;;;1.93;;
12271;SDS011;6198;51.446;6.698;2023-09-19T14:16:45;3.57;;;1.77;;
12271;SDS011;6198;51.446;6.698;2023-09-19T14:19:11;2.50;;;1.43;;
12271;SDS011;6198;51.446;6.698;2023-09-19T14:21:38;5.60;;;1.67;;
12271;SDS011;6198;51.446;6.698;2023-09-19T14:24:04;2.97;;;1.60;;
12271;SDS011;6198;51.446;6.698;2023-09-19T14:26:37;3.40;;;1.73;;
12271;SDS011;6198;51.446;6.698;2023-09-19T14:29:04;3.07;;;1.67;;
12271;SDS011;6198;51.446;6.698;2023-09-19T14:31:32;6.60;;;2.00;;
12271;SDS011;6198;51.446;6.698;2023-09-19T14:33:58;5.43;;;1.40;;
12271;SDS011;6198;51.446;6.698;2023-09-19T14:36:25;3.70;;;1.67;;
12271;SDS011;6198;51.446;6.698;2023-09-19T14:38:55;4.80;;;1.90;;
12271;SDS011;6198;51.446;6.698;2023-09-19T14:41:22;1.97;;;1.50;;
12271;SDS011;6198;51.446;6.698;2023-09-19T14:43:48;2.87;;;1.23;;
12271;SDS011;6198;51.446;6.698;2023-09-19T14:46:14;3.90;;;1.50;;
12271;SDS011;6198;51.446;6.698;2023-09-19T14:48:41;4.33;;;1.70;;
12271;SDS011;6198;51.446;6.698;2023-09-19T14:51:08;4.13;;;1.67;;
12271;SDS011;6198;51.446;6.698;2023-09-19T14:53:34;4.33;;;1.60;;
12271;SDS011;6198;51.446;6.698;2023-09-19T14:56:00;4.13;;;1.40;;
12271;SDS011;6198;51.446;6.698;2023-09-19T14:58:33;4.07;;;1.30;;
12271;SDS011;6198;51.446;6.698;2023-09-19T15:01:02;3.57;;;1.40;;
12271;SDS011;6198;51.446;6.698;2023-09-19T15:03:29;4.70;;;1.80;;
12271;SDS011;6198;51.446;6.698;2023-09-19T15:06:01;3.17;;;1.40;;
12271;SDS011;6198;51.446;6.698;2023-09-19T15:08:29;2.60;;;1.27;;
12271;SDS011;6198;51.446;6.698;2023-09-19T15:10:55;3.13;;;1.40;;
12271;SDS011;6198;51.446;6.698;2023-09-19T15:13:23;6.33;;;1.60;;
12271;SDS011;6198;51.446;6.698;2023-09-19T15:15:57;5.33;;;1.60;;
12271;SDS011;6198;51.446;6.698;2023-09-19T15:18:23;2.50;;;1.40;;
12271;SDS011;6198;51.446;6.698;2023-09-19T15:20:49;3.00;;;1.50;;
12271;SDS011;6198;51.446;6.698;2023-09-19T15:23:15;2.10;;;1.40;;
12271;SDS011;6198;51.446;6.698;2023-09-19T15:25:49;1.80;;;1.23;;
12271;SDS011;6198;51.446;6.698;2023-09-19T15:28:15;1.83;;;1.10;;
12271;SDS011;6198;51.446;6.698;2023-09-19T15:30:41;5.50;;;1.80;;
12271;SDS011;6198;51.446;6.698;2023-09-19T15:33:07;5.77;;;1.50;;
12271;SDS011;6198;51.446;6.698;2023-09-19T15:35:33;3.13;;;1.40;;
12271;SDS011;6198;51.446;6.698;2023-09-19T15:38:01;2.83;;;1.40;;
12271;SDS011;6198;51.446;6.698;2023-09-19T15:40:27;5.13;;;2.00;;
12271;SDS011;6198;51.446;6.698;2023-09-19T15:42:54;3.23;;;1.30;;
12271;SDS011;6198;51.446;6.698;2023-09-19T15:45:21;4.73;;;1.63;;
12271;SDS011;6198;51.446;6.698;2023-09-19T15:47:47;3.00;;;1.53;;
12271;SDS011;6198;51.446;6.698;2023-09-19T15:50:13;4.27;;;1.33;;
12271;SDS011;6198;51.446;6.698;2023-09-19T15:52:40;7.13;;;1.87;;
12271;SDS011;6198;51.446;6.698;2023-09-19T15:55:06;2.13;;;1.50;;
12271;SDS011;6198;51.446;6.698;2023-09-19T15:57:32;6.17;;;1.60;;
12271;SDS011;6198;51.446;6.698;2023-09-19T15:59:59;3.93;;;1.77;;
12271;SDS011;6198;51.446;6.698;2023-09-19T16:02:26;4.27;;;2.27;;
12271;SDS011;6198;51.446;6.698;2023-09-19T16:04:54;3.40;;;1.97;;
12271;SDS011;6198;51.446;6.698;2023-09-19T16:07:20;2.47;;;1.40;;
12271;SDS011;6198;51.446;6.698;2023-09-19T16:09:46;5.17;;;1.60;;
12271;SDS011;6198;51.446;6.698;2023-09-19T16:12:12;4.77;;;1.80;;
12271;SDS011;6198;51.446;6.698;2023-09-19T16:14:39;4.47;;;1.90;;
12271;SDS011;6198;51.446;6.698;2023-09-19T16:17:05;3.63;;;1.97;;
12271;SDS011;6198;51.446;6.698;2023-09-19T16:19:32;4.27;;;1.80;;
12271;SDS011;6198;51.446;6.698;2023-09-19T16:21:58;2.83;;;1.53;;
12271;SDS011;6198;51.446;6.698;2023-09-19T16:24:25;7.50;;;1.97;;
12271;SDS011;6198;51.446;6.698;2023-09-19T16:26:51;4.00;;;1.93;;
12271;SDS011;6198;51.446;6.698;2023-09-19T16:29:18;6.00;;;2.00;;
12271;SDS011;6198;51.446;6.698;2023-09-19T16:31:46;5.20;;;1.93;;
12271;SDS011;6198;51.446;6.698;2023-09-19T16:34:12;2.60;;;1.47;;
12271;SDS011;6198;51.446;6.698;2023-09-19T16:36:38;3.03;;;1.80;;
12271;SDS011;6198;51.446;6.698;2023-09-19T16:39:04;5.80;;;1.80;;
12271;SDS011;6198;51.446;6.698;2023-09-19T16:41:32;5.00;;;1.50;;
12271;SDS011;6198;51.446;6.698;2023-09-19T16:43:59;3.47;;;1.80;;
12271;SDS011;6198;51.446;6.698;2023-09-19T16:46:26;3.20;;;1.73;;
12271;SDS011;6198;51.446;6.698;2023-09-19T16:48:52;2.47;;;1.40;;
12271;SDS011;6198;51.446;6.698;2023-09-19T16:51:18;2.77;;;1.53;;
12271;SDS011;6198;51.446;6.698;2023-09-19T16:53:45;7.63;;;2.27;;
12271;SDS011;6198;51.446;6.698;2023-09-19T16:56:12;2.63;;;1.60;;
12271;SDS011;6198;51.446;6.698;2023-09-19T16:58:40;4.17;;;1.90;;
12271;SDS011;6198;51.446;6.698;2023-09-19T17:01:06;3.07;;;1.40;;
12271;SDS011;6198;51.446;6.698;2023-09-19T17:03:39;3.07;;;1.60;;
12271;SDS011;6198;51.446;6.698;2023-09-19T17:06:08;5.10;;;1.80;;
12271;SDS011;6198;51.446;6.698;2023-09-19T17:08:36;2.47;;;1.37;;
12271;SDS011;6198;51.446;6.698;2023-09-19T17:11:06;2.23;;;1.53;;
12271;SDS011;6198;51.446;6.698;2023-09-19T17:13:34;2.10;;;1.50;;
12271;SDS011;6198;51.446;6.698;2023-09-19T17:16:05;4.53;;;1.70;;
12271;SDS011;6198;51.446;6.698;2023-09-19T17:18:32;6.07;;;2.00;;
12271;SDS011;6198;51.446;6.698;2023-09-19T17:20:59;6.23;;;2.17;;
12271;SDS011;6198;51.446;6.698;2023-09-19T17:23:29;5.57;;;1.50;;